Time;durP1;ratioP1;P1;durP2;ratioP2;P2;SDS_P1;SDS_P2;PMS_P1;PMS_P2;Temp;Humidity;BMP_temperature;BMP_pressure;BME280_temperature;BME280_humidity;BME280_pressure;Samples;Min_cycle;Max_cycle;Signal;HPM_P1;HPM_P2
2022/06/15 00:01:54;;;;;;;7.45;3.13;;;17.20;92.00;;;;;;5076810;28;20056;-59
2022/06/15 00:04:21;;;;;;;5.95;3.03;;;17.10;91.90;;;;;;5073708;28;20045;-59
2022/06/15 00:06:47;;;;;;;11.80;4.10;;;17.00;92.10;;;;;;5078035;28;20048;-58
2022/06/15 00:09:14;;;;;;;7.65;3.03;;;17.00;92.30;;;;;;5072256;28;20132;-58
2022/06/15 00:11:42;;;;;;;7.85;2.97;;;17.00;92.40;;;;;;5080167;28;20080;-58
2022/06/15 00:14:15;;;;;;;8.52;3.30;;;16.90;92.60;;;;;;5071032;28;20127;-59
2022/06/15 00:16:42;;;;;;;7.70;3.03;;;16.90;93.40;;;;;;5079976;28;20088;-60
2022/06/15 00:19:09;;;;;;;5.38;3.63;;;16.90;92.90;;;;;;5071935;28;20050;-58
2022/06/15 00:21:36;;;;;;;7.28;3.72;;;16.80;93.10;;;;;;5080089;28;20260;-59
2022/06/15 00:24:03;;;;;;;10.63;4.15;;;16.70;93.20;;;;;;5072463;28;20080;-59
2022/06/15 00:26:30;;;;;;;8.23;2.80;;;16.70;93.50;;;;;;5078277;28;20579;-60
2022/06/15 00:28:57;;;;;;;6.72;3.20;;;16.70;93.70;;;;;;5072847;28;20558;-58
2022/06/15 00:31:23;;;;;;;8.55;3.08;;;16.60;93.90;;;;;;5077140;28;20475;-59
2022/06/15 00:33:50;;;;;;;11.15;3.58;;;16.60;94.00;;;;;;5074469;28;20094;-57
2022/06/15 00:36:19;;;;;;;10.15;3.47;;;16.50;94.20;;;;;;5078924;28;20116;-58
2022/06/15 00:38:49;;;;;;;6.75;3.15;;;16.50;94.50;;;;;;5082681;28;20048;-60
2022/06/15 00:41:19;;;;;;;9.32;3.20;;;16.40;94.70;;;;;;5079678;28;20079;-59
2022/06/15 00:43:48;;;;;;;6.38;3.08;;;16.40;95.00;;;;;;5081654;28;20040;-59
2022/06/15 00:46:21;;;;;;;4.55;2.85;;;16.30;95.00;;;;;;5084439;28;20134;-60
2022/06/15 00:48:56;;;;;;;6.67;3.20;;;16.30;95.40;;;;;;5074366;28;20040;-59
2022/06/15 00:51:23;;;;;;;8.43;4.07;;;16.20;95.80;;;;;;5084352;28;20330;-60
2022/06/15 00:53:50;;;;;;;8.48;3.20;;;16.20;95.40;;;;;;5073405;28;20072;-59
2022/06/15 00:56:17;;;;;;;11.00;3.13;;;16.30;95.40;;;;;;5107274;27;20122;-59
2022/06/15 00:58:45;;;;;;;15.07;5.00;;;16.20;95.50;;;;;;5075606;28;20066;-59
2022/06/15 01:01:12;;;;;;;7.57;4.22;;;16.20;95.80;;;;;;5065122;28;20048;-59
2022/06/15 01:03:39;;;;;;;9.90;3.70;;;16.10;95.70;;;;;;5081187;28;20123;-60
2022/06/15 01:06:27;;;;;;;7.85;3.45;;;16.10;96.00;;;;;;5082187;28;20044;-60
2022/06/15 01:09:22;;;;;;;10.15;3.25;;;16.10;97.20;;;;;;5076277;28;20135;-58
2022/06/15 01:11:58;;;;;;;9.85;3.08;;;16.10;97.90;;;;;;5079006;28;20483;-59
2022/06/15 01:14:34;;;;;;;12.52;3.33;;;16.00;96.30;;;;;;5079702;28;20055;-58
2022/06/15 01:17:16;;;;;;;9.90;3.25;;;16.00;96.80;;;;;;5075932;28;20075;-59
2022/06/15 01:20:00;;;;;;;7.95;3.03;;;15.80;98.10;;;;;;5079166;28;20144;-59
2022/06/15 01:22:59;;;;;;;16.05;3.67;;;15.80;96.90;;;;;;5080166;28;20071;-59
2022/06/15 01:25:47;;;;;;;5.35;2.92;;;15.70;98.60;;;;;;4723686;28;10000379;-59
2022/06/15 01:28:35;;;;;;;8.98;3.42;;;15.70;97.60;;;;;;5079296;28;20131;-59
2022/06/15 01:31:10;;;;;;;9.27;3.58;;;15.60;98.80;;;;;;5084606;28;20573;-59
2022/06/15 01:34:02;;;;;;;7.82;3.65;;;15.60;97.60;;;;;;5078466;28;20068;-58
2022/06/15 01:36:55;;;;;;;8.80;2.92;;;15.60;99.40;;;;;;5077034;28;20050;-59
2022/06/15 01:39:36;;;;;;;7.65;3.17;;;15.60;98.30;;;;;;5073235;28;20122;-59
2022/06/15 01:42:21;;;;;;;7.97;3.13;;;15.40;99.50;;;;;;5081153;28;20125;-59
2022/06/15 01:44:53;;;;;;;7.53;3.40;;;15.20;99.90;;;;;;5082576;28;20048;-59
2022/06/15 01:47:22;;;;;;;8.48;3.13;;;15.20;98.90;;;;;;5074825;28;20044;-59
2022/06/15 01:50:02;;;;;;;9.90;3.67;;;15.10;99.10;;;;;;5067635;28;20072;-59
2022/06/15 01:52:35;;;;;;;8.77;3.10;;;15.10;99.90;;;;;;5074828;28;20047;-59
2022/06/15 01:55:05;;;;;;;9.47;4.00;;;15.10;99.50;;;;;;5083863;28;20044;-59
2022/06/15 01:57:33;;;;;;;4.35;3.03;;;15.00;99.70;;;;;;5063129;28;20714;-59
2022/06/15 02:00:11;;;;;;;6.68;3.30;;;15.00;99.60;;;;;;5070784;28;20098;-60
2022/06/15 02:02:57;;;;;;;12.55;3.90;;;15.00;99.90;;;;;;5080135;28;20107;-59
2022/06/15 02:05:24;;;;;;;14.18;3.47;;;15.10;99.90;;;;;;5082293;28;20040;-60
2022/06/15 02:08:07;;;;;;;8.40;3.28;;;15.10;99.70;;;;;;5074569;28;20318;-59
2022/06/15 02:10:44;;;;;;;5.45;3.30;;;15.10;99.90;;;;;;5082764;28;20083;-59
2022/06/15 02:13:19;;;;;;;6.82;2.80;;;15.10;99.70;;;;;;5073902;28;20058;-59
2022/06/15 02:15:48;;;;;;;8.95;3.25;;;14.80;99.80;;;;;;5081992;28;20049;-59
2022/06/15 02:18:17;;;;;;;10.45;3.35;;;14.60;99.90;;;;;;5063182;28;20072;-59
2022/06/15 02:20:46;;;;;;;5.05;3.25;;;14.60;99.90;;;;;;5081290;28;20048;-59
2022/06/15 02:23:13;;;;;;;7.97;3.60;;;14.50;99.90;;;;;;5060362;28;20076;-60
2022/06/15 02:25:43;;;;;;;10.05;4.10;;;14.40;99.90;;;;;;5080753;28;20052;-59
2022/06/15 02:28:09;;;;;;;11.52;4.20;;;14.40;99.90;;;;;;5071735;28;20482;-59
2022/06/15 02:30:36;;;;;;;11.48;3.78;;;14.30;99.90;;;;;;5086341;28;20487;-59
2022/06/15 02:33:12;;;;;;;5.28;2.70;;;14.30;99.90;;;;;;5073498;28;20048;-58
2022/06/15 02:35:40;;;;;;;6.28;2.88;;;14.30;99.90;;;;;;5079081;28;20040;-59
2022/06/15 02:38:07;;;;;;;10.07;3.67;;;14.30;99.90;;;;;;5076098;28;20127;-59
2022/06/15 02:40:33;;;;;;;6.65;3.08;;;14.40;99.90;;;;;;5078949;28;20079;-59
2022/06/15 02:43:00;;;;;;;7.07;3.00;;;14.40;99.90;;;;;;5077047;28;20259;-59
2022/06/15 02:45:29;;;;;;;5.63;3.35;;;14.40;99.90;;;;;;5078538;28;20455;-59
2022/06/15 02:47:56;;;;;;;6.10;3.47;;;14.40;99.90;;;;;;5070543;28;20080;-59
2022/06/15 02:50:23;;;;;;;8.90;3.47;;;14.30;99.90;;;;;;5079925;28;20100;-59
2022/06/15 02:52:58;;;;;;;5.80;2.78;;;14.40;99.90;;;;;;5069032;28;20086;-59
2022/06/15 02:55:25;;;;;;;6.93;3.17;;;14.40;99.90;;;;;;5083989;28;20506;-60
2022/06/15 02:58:01;;;;;;;7.55;3.33;;;14.30;99.90;;;;;;5081242;28;20083;-59
2022/06/15 03:00:28;;;;;;;8.32;3.50;;;14.30;99.90;;;;;;5077687;28;20036;-59
2022/06/15 03:02:55;;;;;;;7.50;3.15;;;14.20;99.90;;;;;;5078262;28;20060;-59
2022/06/15 03:05:22;;;;;;;8.55;3.60;;;14.10;99.90;;;;;;5075000;28;20045;-59
2022/06/15 03:07:48;;;;;;;4.68;3.00;;;14.00;99.90;;;;;;5080396;28;20136;-66
2022/06/15 03:10:15;;;;;;;8.23;4.90;;;13.90;99.90;;;;;;5073990;28;20571;-60
2022/06/15 03:12:42;;;;;;;6.82;3.10;;;13.90;99.90;;;;;;5081563;28;20102;-59
2022/06/15 03:15:10;;;;;;;4.30;3.22;;;13.80;99.90;;;;;;5079866;28;20443;-59
2022/06/15 03:17:37;;;;;;;5.93;3.40;;;13.70;99.90;;;;;;5076953;28;20109;-61
2022/06/15 03:20:04;;;;;;;8.18;3.95;;;13.70;99.90;;;;;;5084208;28;20122;-59
2022/06/15 03:22:35;;;;;;;9.10;3.38;;;13.60;99.90;;;;;;5076524;28;20060;-59
2022/06/15 03:25:02;;;;;;;8.95;3.60;;;13.60;99.90;;;;;;5084171;28;20123;-59
2022/06/15 03:27:29;;;;;;;13.38;3.55;;;13.60;99.90;;;;;;5077301;28;20055;-59
2022/06/15 03:29:55;;;;;;;9.82;4.95;;;13.50;99.90;;;;;;5083603;28;20072;-59
2022/06/15 03:32:22;;;;;;;9.73;3.80;;;13.40;99.90;;;;;;5079223;28;20135;-58
2022/06/15 03:34:49;;;;;;;6.50;3.78;;;13.50;99.90;;;;;;5081483;28;20052;-59
2022/06/15 03:37:16;;;;;;;7.93;4.05;;;13.50;99.90;;;;;;5087999;28;20047;-59
2022/06/15 03:39:43;;;;;;;8.85;3.33;;;13.50;99.90;;;;;;5087847;28;20470;-59
2022/06/15 03:42:12;;;;;;;6.65;3.20;;;13.40;99.90;;;;;;5076846;28;20044;-59
2022/06/15 03:44:39;;;;;;;10.88;4.13;;;13.30;99.90;;;;;;5074580;28;20040;-59
2022/06/15 03:47:12;;;;;;;6.82;3.38;;;13.20;99.90;;;;;;5083558;28;20554;-59
2022/06/15 03:49:40;;;;;;;7.50;3.72;;;13.20;99.90;;;;;;5081193;28;20074;-59
2022/06/15 03:52:08;;;;;;;3.55;2.92;;;13.10;99.90;;;;;;5081527;28;20100;-59
2022/06/15 03:54:36;;;;;;;9.65;2.90;;;13.10;99.90;;;;;;5078092;28;20086;-59
2022/06/15 03:57:03;;;;;;;7.20;3.30;;;13.00;99.90;;;;;;5083152;28;20047;-59
2022/06/15 03:59:30;;;;;;;6.10;3.22;;;13.00;99.90;;;;;;5083109;28;20044;-59
2022/06/15 04:01:57;;;;;;;6.68;3.22;;;13.00;99.90;;;;;;5081173;28;20147;-60
2022/06/15 04:04:24;;;;;;;7.68;3.13;;;13.00;99.90;;;;;;5072438;28;20082;-59
2022/06/15 04:06:51;;;;;;;5.55;3.15;;;13.10;99.90;;;;;;5077953;28;20140;-59
2022/06/15 04:09:21;;;;;;;5.95;2.53;;;13.20;99.90;;;;;;5082400;28;20494;-59
2022/06/15 04:12:08;;;;;;;7.18;4.00;;;13.20;99.90;;;;;;5072956;28;20044;-58
2022/06/15 04:14:35;;;;;;;5.70;3.03;;;13.20;99.90;;;;;;5080251;28;20051;-59
2022/06/15 04:17:03;;;;;;;6.60;3.28;;;13.30;99.90;;;;;;5072228;28;20556;-59
2022/06/15 04:19:31;;;;;;;5.60;3.25;;;13.30;99.90;;;;;;5079912;28;20567;-59
2022/06/15 04:21:58;;;;;;;6.93;3.50;;;13.20;99.90;;;;;;5071119;28;20083;-59
2022/06/15 04:24:27;;;;;;;6.57;3.47;;;13.20;99.90;;;;;;5079288;28;20083;-60
2022/06/15 04:26:54;;;;;;;5.22;3.28;;;13.10;99.90;;;;;;5074912;28;20493;-60
2022/06/15 04:29:20;;;;;;;6.90;3.28;;;13.20;99.90;;;;;;5077747;28;20945;-59
2022/06/15 04:31:47;;;;;;;7.00;3.63;;;13.30;99.90;;;;;;5080148;28;20068;-59
2022/06/15 04:34:14;;;;;;;8.50;3.50;;;13.30;99.90;;;;;;5082540;28;20050;-59
2022/06/15 04:36:42;;;;;;;4.85;3.45;;;13.20;99.90;;;;;;5081306;28;21070;-59
2022/06/15 04:39:10;;;;;;;6.70;3.50;;;13.10;99.90;;;;;;5076319;28;20067;-60
2022/06/15 04:41:39;;;;;;;6.13;3.30;;;13.10;99.90;;;;;;5073341;28;20053;-59
2022/06/15 04:44:06;;;;;;;12.13;6.82;;;13.10;99.90;;;;;;5074651;28;20071;-58
2022/06/15 04:46:33;;;;;;;11.02;4.13;;;13.10;99.90;;;;;;5074557;28;20098;-59
2022/06/15 04:49:01;;;;;;;15.57;5.22;;;13.20;99.90;;;;;;5074525;28;20052;-59
2022/06/15 04:51:29;;;;;;;11.93;4.75;;;13.30;99.90;;;;;;5076513;28;20159;-59
2022/06/15 04:53:57;;;;;;;7.50;4.32;;;13.40;99.90;;;;;;5071847;28;20049;-59
2022/06/15 04:56:24;;;;;;;9.60;4.78;;;13.50;99.90;;;;;;5076161;28;20048;-59
2022/06/15 04:58:51;;;;;;;9.13;5.10;;;13.50;99.90;;;;;;5071588;28;20075;-59
2022/06/15 05:01:18;;;;;;;16.60;5.68;;;13.50;99.90;;;;;;5078522;28;20052;-59
2022/06/15 05:03:46;;;;;;;12.50;4.88;;;13.50;99.90;;;;;;5070695;28;20462;-59
2022/06/15 05:06:33;;;;;;;35.78;7.30;;;13.50;99.90;;;;;;5079215;28;20102;-59
2022/06/15 05:09:00;;;;;;;11.68;6.05;;;13.60;99.90;;;;;;5071478;28;20095;-58
2022/06/15 05:11:26;;;;;;;12.65;5.38;;;13.60;99.90;;;;;;5083692;28;20127;-59
2022/06/15 05:13:53;;;;;;;10.73;5.20;;;13.70;99.90;;;;;;5081309;28;20048;-59
2022/06/15 05:16:20;;;;;;;12.80;6.07;;;13.70;99.90;;;;;;5073988;28;20486;-59
2022/06/15 05:18:47;;;;;;;11.85;6.07;;;13.80;99.90;;;;;;5082286;28;20049;-59
2022/06/15 05:21:14;;;;;;;17.45;6.47;;;13.90;99.90;;;;;;5075576;28;20120;-59
2022/06/15 05:23:41;;;;;;;12.18;6.10;;;13.90;99.90;;;;;;5080176;28;20427;-59
2022/06/15 05:26:08;;;;;;;14.40;6.00;;;14.10;99.90;;;;;;5077457;28;20139;-59
2022/06/15 05:28:34;;;;;;;9.35;6.07;;;14.10;99.90;;;;;;5078807;28;20174;-59
2022/06/15 05:31:09;;;;;;;16.33;7.15;;;14.30;99.90;;;;;;5085466;28;20076;-60
2022/06/15 05:33:40;;;;;;;13.73;6.30;;;14.30;99.90;;;;;;5083875;28;20051;-60
2022/06/15 05:36:09;;;;;;;9.68;6.38;;;14.40;99.90;;;;;;5078150;28;20076;-59
2022/06/15 05:38:36;;;;;;;11.95;5.97;;;14.40;99.90;;;;;;5079477;28;20049;-59
2022/06/15 05:41:04;;;;;;;36.28;10.10;;;14.50;99.90;;;;;;5076947;28;20464;-59
2022/06/15 05:43:31;;;;;;;20.58;7.75;;;14.50;99.90;;;;;;5078595;28;20294;-59
2022/06/15 05:45:59;;;;;;;13.98;7.20;;;14.60;99.90;;;;;;5074404;28;20047;-60
2022/06/15 05:48:25;;;;;;;15.05;6.75;;;14.70;99.90;;;;;;5073275;28;20135;-59
2022/06/15 05:50:52;;;;;;;21.35;7.72;;;14.80;99.90;;;;;;5077728;28;20071;-59
2022/06/15 05:53:19;;;;;;;18.77;7.13;;;14.90;99.90;;;;;;5076604;28;20059;-59
2022/06/15 05:55:46;;;;;;;24.02;8.43;;;15.00;99.90;;;;;;5070227;28;20484;-66
2022/06/15 05:58:12;;;;;;;18.67;7.50;;;15.00;99.90;;;;;;5077189;28;20567;-59
2022/06/15 06:00:39;;;;;;;19.95;8.13;;;15.10;99.90;;;;;;5077331;28;20075;-59
2022/06/15 06:03:06;;;;;;;14.07;7.30;;;15.10;99.90;;;;;;5082520;28;20107;-59
2022/06/15 06:05:33;;;;;;;13.82;7.78;;;15.20;99.90;;;;;;5078941;28;20087;-60
2022/06/15 06:08:00;;;;;;;14.30;7.18;;;15.30;99.90;;;;;;5075786;28;20073;-60
2022/06/15 06:10:27;;;;;;;9.32;6.35;;;15.40;99.90;;;;;;5085107;28;20250;-60
2022/06/15 06:12:53;;;;;;;33.40;8.52;;;15.50;99.90;;;;;;5079679;28;20067;-61
2022/06/15 06:15:20;;;;;;;21.17;9.02;;;15.50;99.90;;;;;;5083844;28;20043;-60
2022/06/15 06:17:47;;;;;;;20.63;7.95;;;15.70;99.90;;;;;;5089238;28;20044;-60
2022/06/15 06:20:14;;;;;;;18.40;7.78;;;15.70;99.90;;;;;;5088141;28;20127;-60
2022/06/15 06:22:41;;;;;;;23.40;7.85;;;15.80;99.90;;;;;;5082573;28;20102;-60
2022/06/15 06:25:08;;;;;;;16.02;7.85;;;15.90;99.90;;;;;;5083374;28;20127;-61
2022/06/15 06:27:35;;;;;;;22.13;7.82;;;16.00;99.90;;;;;;5086192;28;20058;-61
2022/06/15 06:30:04;;;;;;;17.35;7.13;;;16.10;99.90;;;;;;5077234;28;20519;-61
2022/06/15 06:32:30;;;;;;;14.20;7.88;;;16.20;99.90;;;;;;5077532;28;20131;-60
2022/06/15 06:34:58;;;;;;;20.45;7.40;;;16.30;99.90;;;;;;5078250;28;20500;-61
2022/06/15 06:37:25;;;;;;;15.93;6.78;;;16.30;99.90;;;;;;5082436;28;20098;-60
2022/06/15 06:39:54;;;;;;;12.88;7.07;;;16.40;99.90;;;;;;5084190;28;20086;-60
2022/06/15 06:42:21;;;;;;;17.30;7.22;;;16.50;99.90;;;;;;5086173;28;20036;-61
2022/06/15 06:44:48;;;;;;;25.58;7.28;;;16.50;99.90;;;;;;5086306;28;20083;-61
2022/06/15 06:47:15;;;;;;;24.65;8.70;;;16.60;99.90;;;;;;5086164;28;20048;-57
2022/06/15 06:49:42;;;;;;;17.42;6.95;;;16.70;99.90;;;;;;5081919;28;20083;-59
2022/06/15 06:52:09;;;;;;;13.20;6.30;;;16.70;99.90;;;;;;5074073;28;20090;-59
2022/06/15 06:54:36;;;;;;;19.15;6.63;;;16.80;99.90;;;;;;5082344;28;20400;-60
2022/06/15 06:57:03;;;;;;;20.77;7.13;;;16.90;99.90;;;;;;5083737;28;20514;-59
2022/06/15 06:59:30;;;;;;;11.35;6.47;;;17.00;99.90;;;;;;5085451;28;20126;-58
2022/06/15 07:01:57;;;;;;;16.42;6.05;;;17.00;99.90;;;;;;5085364;28;20389;-58
2022/06/15 07:04:24;;;;;;;18.42;7.40;;;17.10;99.90;;;;;;5085931;28;20058;-59
2022/06/15 07:06:51;;;;;;;22.00;6.25;;;17.20;99.90;;;;;;5085161;28;20109;-59
2022/06/15 07:09:18;;;;;;;12.88;6.80;;;17.20;99.90;;;;;;5084706;28;20083;-59
2022/06/15 07:11:44;;;;;;;8.85;5.20;;;17.30;99.90;;;;;;5084464;28;20069;-59
2022/06/15 07:14:12;;;;;;;11.98;6.18;;;17.40;99.90;;;;;;5087028;28;20067;-58
2022/06/15 07:16:40;;;;;;;12.68;5.32;;;17.50;99.90;;;;;;5082688;28;20052;-63
2022/06/15 07:19:07;;;;;;;15.18;5.32;;;17.50;99.90;;;;;;5086763;28;20036;-58
2022/06/15 07:21:34;;;;;;;15.38;6.40;;;17.60;99.90;;;;;;5087200;28;20138;-59
2022/06/15 07:24:01;;;;;;;21.05;5.88;;;17.70;99.90;;;;;;5076124;28;20045;-60
2022/06/15 07:26:33;;;;;;;9.65;4.63;;;17.80;99.90;;;;;;5079510;28;20094;-59
2022/06/15 07:29:00;;;;;;;13.10;5.35;;;17.90;99.90;;;;;;5073356;28;20583;-59
2022/06/15 07:31:32;;;;;;;10.95;4.75;;;18.00;99.90;;;;;;5072613;28;20103;-59
2022/06/15 07:33:59;;;;;;;14.18;4.90;;;18.00;99.90;;;;;;5073191;28;20540;-59
2022/06/15 07:36:32;;;;;;;15.98;5.45;;;18.10;99.90;;;;;;5086132;28;20048;-59
2022/06/15 07:38:59;;;;;;;12.52;4.65;;;18.20;99.90;;;;;;5079513;28;20079;-60
2022/06/15 07:41:26;;;;;;;13.57;5.07;;;18.30;99.90;;;;;;5075436;28;20084;-59
2022/06/15 07:43:53;;;;;;;12.68;4.65;;;18.40;99.90;;;;;;5083729;28;20074;-63
2022/06/15 07:46:20;;;;;;;10.98;4.47;;;18.40;99.90;;;;;;5075664;28;20045;-59
2022/06/15 07:51:40;;;;;;;9.45;4.35;;;18.60;99.90;;;;;;5075007;28;20087;-63
2022/06/15 07:54:11;;;;;;;10.50;4.28;;;18.70;99.90;;;;;;5083030;28;20075;-59
2022/06/15 07:56:38;;;;;;;10.15;3.58;;;18.70;99.90;;;;;;5073065;28;20612;-59
2022/06/15 07:59:05;;;;;;;15.63;4.07;;;18.90;99.90;;;;;;5083214;28;20040;-60
2022/06/15 08:01:32;;;;;;;12.05;4.00;;;18.90;99.90;;;;;;5075500;28;20558;-59
2022/06/15 08:03:59;;;;;;;10.98;3.80;;;19.00;99.90;;;;;;5079991;28;20541;-60
2022/06/15 08:06:27;;;;;;;12.75;4.18;;;19.10;99.90;;;;;;5077411;28;20072;-59
2022/06/15 08:08:53;;;;;;;10.80;3.20;;;19.20;99.90;;;;;;5081547;28;20080;-59
2022/06/15 08:11:20;;;;;;;10.15;4.50;;;19.20;99.90;;;;;;5075522;28;20043;-58
2022/06/15 08:13:47;;;;;;;7.50;3.85;;;19.30;99.90;;;;;;5072537;28;20074;-60
2022/06/15 08:16:14;;;;;;;10.48;4.15;;;19.30;99.90;;;;;;5075507;28;20471;-60
2022/06/15 08:18:44;;;;;;;9.43;3.75;;;19.30;99.90;;;;;;5073299;28;20124;-60
2022/06/15 08:21:20;;;;;;;12.65;3.97;;;19.30;99.90;;;;;;5072605;28;20320;-60
2022/06/15 08:23:47;;;;;;;11.40;3.63;;;19.40;99.90;;;;;;5072662;28;20044;-60
2022/06/15 08:26:17;;;;;;;17.25;4.30;;;19.60;99.90;;;;;;5074069;28;20048;-59
2022/06/15 08:28:48;;;;;;;13.63;4.38;;;19.70;99.90;;;;;;5075000;28;20080;-59
2022/06/15 08:31:15;;;;;;;13.18;3.45;;;19.70;99.90;;;;;;5074155;28;20560;-60
2022/06/15 08:33:42;;;;;;;7.07;2.80;;;19.80;99.80;;;;;;5078834;28;20052;-61
2022/06/15 08:36:15;;;;;;;10.43;4.68;;;20.00;99.30;;;;;;5073321;28;20480;-60
2022/06/15 08:38:42;;;;;;;6.63;2.80;;;20.00;99.20;;;;;;5074391;28;20091;-61
2022/06/15 08:41:19;;;;;;;13.50;4.05;;;20.10;98.90;;;;;;5115288;27;20112;-59
2022/06/15 08:44:07;;;;;;;14.85;2.75;;;20.20;98.50;;;;;;5073762;28;20524;-60
2022/06/15 08:46:39;;;;;;;13.90;3.20;;;20.40;98.00;;;;;;5082554;28;20520;-60
2022/06/15 08:49:17;;;;;;;12.70;3.35;;;20.50;98.00;;;;;;5071574;28;20048;-60
2022/06/15 08:51:46;;;;;;;9.57;2.53;;;20.60;97.20;;;;;;5063554;28;20044;-63
2022/06/15 08:54:21;;;;;;;7.85;3.45;;;20.70;97.30;;;;;;5082231;28;20094;-61
2022/06/15 08:57:03;;;;;;;7.63;2.33;;;20.70;96.50;;;;;;5081354;28;20044;-58
2022/06/15 09:00:09;;;;;;;7.32;2.30;;;20.70;95.70;;;;;;5071630;28;20079;-60
2022/06/15 09:02:48;;;;;;;6.32;2.33;;;20.80;95.70;;;;;;5065304;28;20052;-60
2022/06/15 09:05:42;;;;;;;5.93;1.98;;;20.80;93.50;;;;;;5079878;28;20505;-58
2022/06/15 09:08:19;;;;;;;7.80;1.88;;;20.90;92.40;;;;;;5086333;28;20044;-59
2022/06/15 09:10:55;;;;;;;8.30;1.60;;;21.00;92.60;;;;;;5072233;28;20198;-59
2022/06/15 09:13:37;;;;;;;5.40;2.38;;;21.20;92.80;;;;;;5076296;28;20036;-59
2022/06/15 09:16:32;;;;;;;7.55;1.77;;;21.30;91.50;;;;;;5084204;28;20091;-59
2022/06/15 09:19:12;;;;;;;9.93;2.28;;;21.30;90.00;;;;;;5077397;28;20172;-59
2022/06/15 09:21:48;;;;;;;8.43;2.10;;;21.50;90.40;;;;;;5066865;28;20091;-59
2022/06/15 09:24:22;;;;;;;4.97;1.48;;;21.50;90.00;;;;;;5084787;28;20302;-59
2022/06/15 09:26:54;;;;;;;6.25;2.47;;;21.70;91.10;;;;;;5073081;28;20075;-58
2022/06/15 09:29:26;;;;;;;6.22;1.70;;;21.80;88.10;;;;;;5076273;28;20093;-59
2022/06/15 09:32:05;;;;;;;7.28;2.55;;;21.90;88.30;;;;;;5072603;28;20143;-59
2022/06/15 09:34:35;;;;;;;13.18;1.98;;;21.90;86.90;;;;;;5060051;28;20067;-59
2022/06/15 09:37:02;;;;;;;4.88;1.45;;;21.90;88.10;;;;;;5072129;28;20095;-59
2022/06/15 09:39:29;;;;;;;7.43;2.08;;;22.00;87.50;;;;;;5068705;28;20135;-59
2022/06/15 09:42:18;;;;;;;7.00;1.30;;;22.10;87.70;;;;;;5078192;28;20132;-60
2022/06/15 09:45:03;;;;;;;3.28;1.60;;;22.30;82.30;;;;;;5080800;28;20094;-59
2022/06/15 09:47:49;;;;;;;6.28;2.10;;;22.30;83.60;;;;;;5085486;28;20048;-60
2022/06/15 09:50:21;;;;;;;25.52;5.03;;;22.50;84.00;;;;;;5079636;28;20098;-58
2022/06/15 09:53:10;;;;;;;4.25;1.65;;;22.50;82.30;;;;;;5075759;28;20048;-59
2022/06/15 09:55:47;;;;;;;6.53;1.52;;;22.60;80.10;;;;;;5078397;28;20048;-59
2022/06/15 09:58:38;;;;;;;8.90;1.90;;;22.70;81.10;;;;;;5085928;28;20058;-59
2022/06/15 10:01:07;;;;;;;7.47;2.35;;;22.90;79.30;;;;;;5084572;28;20048;-58
2022/06/15 10:03:36;;;;;;;6.15;2.03;;;23.00;80.30;;;;;;5074397;28;20447;-58
2022/06/15 10:06:45;;;;;;;11.77;2.20;;;23.20;79.70;;;;;;5083682;28;20098;-59
2022/06/15 10:09:16;;;;;;;3.05;1.75;;;23.30;75.90;;;;;;5011154;28;20567;-58
2022/06/15 10:11:49;;;;;;;6.53;1.73;;;23.40;78.60;;;;;;5089026;28;20072;-59
2022/06/15 10:14:29;;;;;;;2.42;1.70;;;23.70;76.30;;;;;;5075841;28;20086;-58
2022/06/15 10:17:01;;;;;;;3.80;1.67;;;23.90;73.00;;;;;;5073620;28;20294;-58
2022/06/15 10:19:30;;;;;;;5.38;2.00;;;24.10;74.20;;;;;;5075224;28;20049;-58
2022/06/15 10:22:00;;;;;;;6.55;1.85;;;24.40;76.00;;;;;;5067442;28;20466;-58
2022/06/15 10:24:38;;;;;;;7.28;1.70;;;24.60;74.40;;;;;;5074121;28;20545;-59
2022/06/15 10:27:29;;;;;;;6.43;1.55;;;24.80;71.00;;;;;;5081861;28;20502;-58
2022/06/15 10:30:16;;;;;;;10.57;2.08;;;24.80;66.70;;;;;;5075335;28;20048;-59
2022/06/15 10:33:02;;;;;;;3.72;1.60;;;25.00;71.40;;;;;;5074764;28;20139;-60
2022/06/15 10:35:30;;;;;;;4.85;1.80;;;25.30;68.30;;;;;;5078132;28;20056;-60
2022/06/15 10:38:03;;;;;;;6.43;2.25;;;25.60;71.20;;;;;;5068395;28;20123;-60
2022/06/15 10:40:38;;;;;;;5.30;1.77;;;25.90;68.60;;;;;;5059690;28;20487;-60
2022/06/15 10:43:15;;;;;;;20.15;3.13;;;26.00;65.90;;;;;;5085966;28;20051;-61
2022/06/15 10:46:04;;;;;;;5.75;2.50;;;26.00;65.20;;;;;;5083880;28;20740;-59
2022/06/15 10:48:57;;;;;;;6.78;1.95;;;26.00;62.40;;;;;;5081807;28;20044;-59
2022/06/15 10:51:35;;;;;;;6.05;1.65;;;26.10;63.40;;;;;;5084451;28;20070;-59
2022/06/15 10:54:17;;;;;;;4.35;1.55;;;26.20;62.90;;;;;;5074998;28;20552;-59
2022/06/15 11:02:38;;;;;;;8.85;1.70;;;25.80;64.20;;;;;;5079555;28;20121;-59
2022/06/15 11:05:14;;;;;;;10.10;1.98;;;25.40;60.20;;;;;;5083674;28;20051;-60
2022/06/15 11:07:56;;;;;;;4.60;1.92;;;25.20;61.20;;;;;;5078923;28;20067;-59
2022/06/15 11:10:38;;;;;;;34.28;3.08;;;25.20;63.30;;;;;;5074519;28;20048;-59
2022/06/15 11:13:37;;;;;;;5.85;1.85;;;25.10;61.70;;;;;;5076960;28;20048;-59
2022/06/15 11:19:18;;;;;;;3.17;1.67;;;25.00;59.40;;;;;;5073631;28;20047;-59
2022/06/15 11:21:47;;;;;;;9.75;2.40;;;24.80;62.20;;;;;;5065334;28;20522;-59
2022/06/15 11:24:32;;;;;;;3.20;1.77;;;24.60;62.20;;;;;;5073168;28;20068;-59
2022/06/15 11:27:07;;;;;;;7.05;1.88;;;24.60;62.60;;;;;;5074310;28;20056;-59
2022/06/15 11:29:49;;;;;;;5.28;1.38;;;24.60;62.70;;;;;;5067836;28;20044;-59
2022/06/15 11:32:42;;;;;;;6.10;1.75;;;24.70;62.80;;;;;;5082062;28;20047;-58
2022/06/15 11:35:12;;;;;;;6.40;1.75;;;24.70;59.40;;;;;;5064990;28;20465;-58
2022/06/15 11:37:51;;;;;;;4.32;1.60;;;24.60;62.00;;;;;;5071592;28;20112;-59
2022/06/15 11:40:23;;;;;;;5.65;1.58;;;24.60;59.10;;;;;;5081473;28;20044;-61
2022/06/15 11:42:53;;;;;;;7.45;1.55;;;24.60;62.40;;;;;;5081672;28;20044;-58
2022/06/15 11:45:39;;;;;;;7.30;2.20;;;24.70;60.80;;;;;;5080691;28;20127;-58
2022/06/15 11:48:15;;;;;;;4.38;1.77;;;24.60;59.70;;;;;;5092063;28;20054;-58
2022/06/15 11:50:59;;;;;;;6.78;1.75;;;24.70;60.10;;;;;;5074247;28;20473;-58
2022/06/15 11:53:44;;;;;;;7.50;1.90;;;24.80;59.90;;;;;;5075891;28;20086;-58
2022/06/15 11:56:13;;;;;;;8.38;1.63;;;24.80;61.10;;;;;;5069003;28;20083;-58
2022/06/15 11:59:10;;;;;;;11.13;2.20;;;24.70;60.70;;;;;;5078632;28;20114;-59
2022/06/15 12:02:08;;;;;;;1.80;1.25;;;24.70;60.10;;;;;;5082193;28;20567;-59
2022/06/15 12:05:18;;;;;;;5.43;2.20;;;24.80;61.00;;;;;;5078776;28;20048;-58
2022/06/15 12:07:49;;;;;;;7.63;1.98;;;25.00;60.10;;;;;;5026930;28;20098;-60
2022/06/15 12:10:40;;;;;;;5.43;1.88;;;25.10;59.60;;;;;;5063716;28;20064;-60
2022/06/15 12:13:31;;;;;;;4.38;1.40;;;25.00;57.50;;;;;;5070702;28;20490;-60
2022/06/15 12:16:13;;;;;;;7.03;1.63;;;25.00;59.40;;;;;;5072740;28;20083;-60
2022/06/15 12:19:21;;;;;;;2.03;1.17;;;25.00;59.60;;;;;;5071778;28;20048;-60
2022/06/15 12:22:00;;;;;;;4.60;1.50;;;25.10;57.50;;;;;;5074455;28;20079;-60
2022/06/15 12:24:36;;;;;;;4.32;1.65;;;25.20;58.20;;;;;;5079140;28;20101;-60
2022/06/15 12:27:29;;;;;;;2.92;1.35;;;25.20;58.20;;;;;;5082310;28;20059;-59
2022/06/15 12:29:59;;;;;;;4.38;1.50;;;25.40;57.30;;;;;;5085682;28;20135;-59
2022/06/15 12:35:18;;;;;;;5.45;2.00;;;25.40;58.50;;;;;;5079652;28;20051;-59
2022/06/15 12:38:24;;;;;;;4.45;1.50;;;25.50;58.70;;;;;;5094428;28;20046;-60
2022/06/15 12:41:05;;;;;;;7.35;2.53;;;25.60;58.60;;;;;;5077735;28;20048;-59
2022/06/15 12:43:44;;;;;;;2.92;1.48;;;25.60;57.70;;;;;;5072232;28;20044;-59
2022/06/15 12:46:14;;;;;;;5.95;2.05;;;25.60;58.30;;;;;;5075408;28;20080;-59
2022/06/15 12:48:48;;;;;;;13.63;3.00;;;25.70;59.00;;;;;;5072388;28;20052;-59
2022/06/15 12:51:33;;;;;;;2.85;1.50;;;25.70;58.10;;;;;;5076196;28;20135;-58
2022/06/15 12:54:11;;;;;;;7.38;2.08;;;26.00;58.30;;;;;;5073777;28;20340;-58
2022/06/15 12:56:57;;;;;;;4.97;1.83;;;26.20;57.90;;;;;;5066945;28;20080;-58
2022/06/15 12:59:36;;;;;;;6.45;1.67;;;26.40;58.10;;;;;;5078814;28;20131;-59
2022/06/15 13:02:15;;;;;;;7.03;2.00;;;26.40;58.30;;;;;;5078351;28;20564;-60
2022/06/15 13:05:06;;;;;;;6.25;1.95;;;26.30;58.50;;;;;;5070843;28;20083;-59
2022/06/15 13:07:34;;;;;;;5.20;1.58;;;26.30;57.30;;;;;;5080058;28;20504;-58
2022/06/15 13:10:07;;;;;;;5.25;1.90;;;26.30;58.70;;;;;;5072211;28;20523;-58
2022/06/15 13:12:43;;;;;;;5.20;1.88;;;26.50;57.80;;;;;;5079742;28;20068;-58
2022/06/15 13:15:25;;;;;;;4.75;1.80;;;26.60;58.70;;;;;;5070579;28;20162;-59
2022/06/15 13:18:11;;;;;;;5.82;1.85;;;26.60;56.40;;;;;;5079937;28;20090;-58
2022/06/15 13:20:50;;;;;;;6.63;2.58;;;26.30;57.60;;;;;;5071865;28;20101;-58
2022/06/15 13:23:23;;;;;;;3.80;1.83;;;26.30;57.40;;;;;;5071444;28;20048;-59
2022/06/15 13:25:57;;;;;;;6.53;1.92;;;26.40;57.00;;;;;;5072252;28;20132;-59
2022/06/15 13:28:32;;;;;;;10.25;1.98;;;26.40;58.10;;;;;;5070556;28;20518;-59